sensor_id;sensor_type;location;lat;lon;timestamp;temperature;humidity
43858;DHT22;29507;51.284;5.758;2023-06-05T00:01:36;13.30;99.90
43858;DHT22;29507;51.284;5.758;2023-06-05T00:04:02;13.40;99.90
43858;DHT22;29507;51.284;5.758;2023-06-05T00:06:29;13.40;99.90
43858;DHT22;29507;51.284;5.758;2023-06-05T00:08:54;13.30;99.90
43858;DHT22;29507;51.284;5.758;2023-06-05T00:11:20;13.30;99.90
43858;DHT22;29507;51.284;5.758;2023-06-05T00:13:47;13.20;99.90
43858;DHT22;29507;51.284;5.758;2023-06-05T00:16:12;13.00;99.90
43858;DHT22;29507;51.284;5.758;2023-06-05T00:18:38;12.90;99.90
43858;DHT22;29507;51.284;5.758;2023-06-05T00:21:03;12.90;99.90
43858;DHT22;29507;51.284;5.758;2023-06-05T00:23:29;12.80;99.90
43858;DHT22;29507;51.284;5.758;2023-06-05T00:25:55;12.80;99.90
43858;DHT22;29507;51.284;5.758;2023-06-05T00:28:20;12.70;99.90
43858;DHT22;29507;51.284;5.758;2023-06-05T00:30:46;12.60;99.90
43858;DHT22;29507;51.284;5.758;2023-06-05T00:33:12;12.60;99.90
43858;DHT22;29507;51.284;5.758;2023-06-05T00:35:38;12.60;99.90
43858;DHT22;29507;51.284;5.758;2023-06-05T00:38:04;12.50;99.90
43858;DHT22;29507;51.284;5.758;2023-06-05T00:40:32;12.40;99.90
43858;DHT22;29507;51.284;5.758;2023-06-05T00:42:58;12.40;99.90
43858;DHT22;29507;51.284;5.758;2023-06-05T00:45:23;12.30;99.90
43858;DHT22;29507;51.284;5.758;2023-06-05T00:47:49;12.30;99.90
43858;DHT22;29507;51.284;5.758;2023-06-05T00:50:15;12.20;99.90
43858;DHT22;29507;51.284;5.758;2023-06-05T00:52:43;12.20;99.90
43858;DHT22;29507;51.284;5.758;2023-06-05T00:55:10;12.10;99.90
43858;DHT22;29507;51.284;5.758;2023-06-05T00:57:38;12.10;99.90
43858;DHT22;29507;51.284;5.758;2023-06-05T01:00:05;12.10;99.90
43858;DHT22;29507;51.284;5.758;2023-06-05T01:02:33;12.00;99.90
43858;DHT22;29507;51.284;5.758;2023-06-05T01:05:00;12.00;99.90
43858;DHT22;29507;51.284;5.758;2023-06-05T01:07:26;12.00;99.90
43858;DHT22;29507;51.284;5.758;2023-06-05T01:09:54;12.00;99.90
43858;DHT22;29507;51.284;5.758;2023-06-05T01:12:44;12.00;99.90
43858;DHT22;29507;51.284;5.758;2023-06-05T01:15:12;11.90;99.90
43858;DHT22;29507;51.284;5.758;2023-06-05T01:17:38;12.00;99.90
43858;DHT22;29507;51.284;5.758;2023-06-05T01:20:06;11.90;99.90
43858;DHT22;29507;51.284;5.758;2023-06-05T01:22:35;11.90;99.90
43858;DHT22;29507;51.284;5.758;2023-06-05T01:25:04;11.80;99.90
43858;DHT22;29507;51.284;5.758;2023-06-05T01:27:40;11.70;99.90
43858;DHT22;29507;51.284;5.758;2023-06-05T01:30:11;11.70;99.90
43858;DHT22;29507;51.284;5.758;2023-06-05T01:33:03;11.70;99.90
43858;DHT22;29507;51.284;5.758;2023-06-05T01:35:32;11.60;99.90
43858;DHT22;29507;51.284;5.758;2023-06-05T01:38:00;11.50;99.90
43858;DHT22;29507;51.284;5.758;2023-06-05T01:40:29;11.40;99.90
43858;DHT22;29507;51.284;5.758;2023-06-05T01:42:55;11.50;99.90
43858;DHT22;29507;51.284;5.758;2023-06-05T01:45:21;11.50;99.90
43858;DHT22;29507;51.284;5.758;2023-06-05T01:47:48;11.40;99.90
43858;DHT22;29507;51.284;5.758;2023-06-05T01:50:14;11.40;99.90
43858;DHT22;29507;51.284;5.758;2023-06-05T01:52:42;11.40;99.90
43858;DHT22;29507;51.284;5.758;2023-06-05T01:55:16;11.40;99.90
43858;DHT22;29507;51.284;5.758;2023-06-05T01:57:43;11.30;99.90
43858;DHT22;29507;51.284;5.758;2023-06-05T02:00:10;11.30;99.90
43858;DHT22;29507;51.284;5.758;2023-06-05T02:02:39;11.30;99.90
43858;DHT22;29507;51.284;5.758;2023-06-05T02:05:10;11.20;99.90
43858;DHT22;29507;51.284;5.758;2023-06-05T02:07:41;11.20;99.90
43858;DHT22;29507;51.284;5.758;2023-06-05T02:10:08;11.20;99.90
43858;DHT22;29507;51.284;5.758;2023-06-05T02:12:34;11.20;99.90
43858;DHT22;29507;51.284;5.758;2023-06-05T02:15:00;11.20;99.90
43858;DHT22;29507;51.284;5.758;2023-06-05T02:17:26;11.10;99.90
43858;DHT22;29507;51.284;5.758;2023-06-05T02:19:52;11.10;99.90
43858;DHT22;29507;51.284;5.758;2023-06-05T02:22:18;10.90;99.90
43858;DHT22;29507;51.284;5.758;2023-06-05T02:24:44;10.90;99.90
43858;DHT22;29507;51.284;5.758;2023-06-05T02:27:10;10.90;99.90
43858;DHT22;29507;51.284;5.758;2023-06-05T02:29:39;10.90;99.90
43858;DHT22;29507;51.284;5.758;2023-06-05T02:32:05;10.90;99.90
43858;DHT22;29507;51.284;5.758;2023-06-05T02:34:32;10.90;99.90
43858;DHT22;29507;51.284;5.758;2023-06-05T02:36:58;10.80;99.90
43858;DHT22;29507;51.284;5.758;2023-06-05T02:39:24;10.70;99.90
43858;DHT22;29507;51.284;5.758;2023-06-05T02:41:51;10.70;99.90
43858;DHT22;29507;51.284;5.758;2023-06-05T02:44:16;10.60;99.90
43858;DHT22;29507;51.284;5.758;2023-06-05T02:46:42;10.50;99.90
43858;DHT22;29507;51.284;5.758;2023-06-05T02:49:07;10.50;99.90
43858;DHT22;29507;51.284;5.758;2023-06-05T02:51:33;10.60;99.90
43858;DHT22;29507;51.284;5.758;2023-06-05T02:53:59;10.50;99.90
43858;DHT22;29507;51.284;5.758;2023-06-05T02:56:24;10.50;99.90
43858;DHT22;29507;51.284;5.758;2023-06-05T02:58:52;10.40;99.90
43858;DHT22;29507;51.284;5.758;2023-06-05T03:01:18;10.40;99.90
43858;DHT22;29507;51.284;5.758;2023-06-05T03:03:44;10.40;99.90
43858;DHT22;29507;51.284;5.758;2023-06-05T03:06:10;10.40;99.90
43858;DHT22;29507;51.284;5.758;2023-06-05T03:08:37;10.30;99.90
43858;DHT22;29507;51.284;5.758;2023-06-05T03:11:03;10.30;99.90
43858;DHT22;29507;51.284;5.758;2023-06-05T03:13:29;10.20;99.90
43858;DHT22;29507;51.284;5.758;2023-06-05T03:15:56;10.20;99.90
43858;DHT22;29507;51.284;5.758;2023-06-05T03:18:25;10.20;99.90
43858;DHT22;29507;51.284;5.758;2023-06-05T03:20:52;10.20;99.90
43858;DHT22;29507;51.284;5.758;2023-06-05T03:23:25;10.20;99.90
43858;DHT22;29507;51.284;5.758;2023-06-05T03:25:51;10.20;99.90
43858;DHT22;29507;51.284;5.758;2023-06-05T03:28:17;10.20;99.90
43858;DHT22;29507;51.284;5.758;2023-06-05T03:30:44;10.20;99.90
43858;DHT22;29507;51.284;5.758;2023-06-05T03:33:10;10.20;99.90
43858;DHT22;29507;51.284;5.758;2023-06-05T03:35:36;10.20;99.90
43858;DHT22;29507;51.284;5.758;2023-06-05T03:38:02;10.20;99.90
43858;DHT22;29507;51.284;5.758;2023-06-05T03:40:28;10.20;99.90
43858;DHT22;29507;51.284;5.758;2023-06-05T03:42:54;10.10;99.90
43858;DHT22;29507;51.284;5.758;2023-06-05T03:45:20;10.10;99.90
43858;DHT22;29507;51.284;5.758;2023-06-05T03:47:45;10.10;99.90
43858;DHT22;29507;51.284;5.758;2023-06-05T03:50:14;10.10;99.90
43858;DHT22;29507;51.284;5.758;2023-06-05T03:52:41;10.10;99.90
43858;DHT22;29507;51.284;5.758;2023-06-05T03:55:07;10.10;99.90
43858;DHT22;29507;51.284;5.758;2023-06-05T03:57:33;10.10;99.90
43858;DHT22;29507;51.284;5.758;2023-06-05T04:00:01;10.10;99.90
43858;DHT22;29507;51.284;5.758;2023-06-05T04:02:26;10.10;99.90
43858;DHT22;29507;51.284;5.758;2023-06-05T04:04:52;10.10;99.90
43858;DHT22;29507;51.284;5.758;2023-06-05T04:07:17;10.10;99.90
43858;DHT22;29507;51.284;5.758;2023-06-05T04:09:43;10.10;99.90
43858;DHT22;29507;51.284;5.758;2023-06-05T04:12:09;10.10;99.90
43858;DHT22;29507;51.284;5.758;2023-06-05T04:14:39;10.20;99.90
43858;DHT22;29507;51.284;5.758;2023-06-05T04:17:05;10.20;99.90
43858;DHT22;29507;51.284;5.758;2023-06-05T04:19:31;10.20;99.90
43858;DHT22;29507;51.284;5.758;2023-06-05T04:21:56;10.20;99.90
43858;DHT22;29507;51.284;5.758;2023-06-05T04:24:22;10.30;99.90
43858;DHT22;29507;51.284;5.758;2023-06-05T04:26:50;10.40;99.90
43858;DHT22;29507;51.284;5.758;2023-06-05T04:29:17;10.50;99.90
43858;DHT22;29507;51.284;5.758;2023-06-05T04:31:45;10.50;99.90
43858;DHT22;29507;51.284;5.758;2023-06-05T04:34:11;10.50;99.90
43858;DHT22;29507;51.284;5.758;2023-06-05T04:36:38;10.50;99.90
43858;DHT22;29507;51.284;5.758;2023-06-05T04:39:05;10.60;99.90
43858;DHT22;29507;51.284;5.758;2023-06-05T04:41:32;10.60;99.90
43858;DHT22;29507;51.284;5.758;2023-06-05T04:43:59;10.70;99.90
43858;DHT22;29507;51.284;5.758;2023-06-05T04:46:27;10.70;99.90
43858;DHT22;29507;51.284;5.758;2023-06-05T04:48:53;10.80;99.90
43858;DHT22;29507;51.284;5.758;2023-06-05T04:51:21;10.80;99.90
43858;DHT22;29507;51.284;5.758;2023-06-05T04:53:47;10.90;99.90
43858;DHT22;29507;51.284;5.758;2023-06-05T04:56:16;10.90;99.90
43858;DHT22;29507;51.284;5.758;2023-06-05T04:58:42;10.90;99.90
43858;DHT22;29507;51.284;5.758;2023-06-05T05:01:07;11.00;99.90
43858;DHT22;29507;51.284;5.758;2023-06-05T05:03:33;11.10;99.90
43858;DHT22;29507;51.284;5.758;2023-06-05T05:05:59;11.20;99.90
43858;DHT22;29507;51.284;5.758;2023-06-05T05:08:25;11.20;99.90
43858;DHT22;29507;51.284;5.758;2023-06-05T05:10:53;11.20;99.90
43858;DHT22;29507;51.284;5.758;2023-06-05T05:13:18;11.30;99.90
43858;DHT22;29507;51.284;5.758;2023-06-05T05:15:44;11.40;99.90
43858;DHT22;29507;51.284;5.758;2023-06-05T05:18:12;11.50;99.90
43858;DHT22;29507;51.284;5.758;2023-06-05T05:20:37;11.50;99.90
43858;DHT22;29507;51.284;5.758;2023-06-05T05:23:04;11.60;99.90
43858;DHT22;29507;51.284;5.758;2023-06-05T05:25:29;11.70;99.90
43858;DHT22;29507;51.284;5.758;2023-06-05T05:27:55;11.70;99.90
43858;DHT22;29507;51.284;5.758;2023-06-05T05:30:21;11.80;99.90
43858;DHT22;29507;51.284;5.758;2023-06-05T05:32:46;11.90;99.90
43858;DHT22;29507;51.284;5.758;2023-06-05T05:35:12;12.10;99.90
43858;DHT22;29507;51.284;5.758;2023-06-05T05:37:37;12.40;99.90
43858;DHT22;29507;51.284;5.758;2023-06-05T05:40:03;12.50;99.90
43858;DHT22;29507;51.284;5.758;2023-06-05T05:42:30;12.70;99.90
43858;DHT22;29507;51.284;5.758;2023-06-05T05:44:56;13.20;99.90
43858;DHT22;29507;51.284;5.758;2023-06-05T05:47:21;13.70;99.90
43858;DHT22;29507;51.284;5.758;2023-06-05T05:49:47;14.10;99.90
43858;DHT22;29507;51.284;5.758;2023-06-05T05:52:12;14.40;99.90
43858;DHT22;29507;51.284;5.758;2023-06-05T05:54:38;14.60;99.90
43858;DHT22;29507;51.284;5.758;2023-06-05T05:57:03;14.80;99.90
43858;DHT22;29507;51.284;5.758;2023-06-05T05:59:30;15.00;99.90
43858;DHT22;29507;51.284;5.758;2023-06-05T06:01:55;15.20;99.90
43858;DHT22;29507;51.284;5.758;2023-06-05T06:04:23;15.30;99.90
43858;DHT22;29507;51.284;5.758;2023-06-05T06:06:49;15.40;99.90
43858;DHT22;29507;51.284;5.758;2023-06-05T06:09:18;15.70;99.90
43858;DHT22;29507;51.284;5.758;2023-06-05T06:11:43;16.10;99.90
43858;DHT22;29507;51.284;5.758;2023-06-05T06:14:10;16.50;99.90
43858;DHT22;29507;51.284;5.758;2023-06-05T06:16:39;16.90;99.90
43858;DHT22;29507;51.284;5.758;2023-06-05T06:19:05;17.00;99.90
43858;DHT22;29507;51.284;5.758;2023-06-05T06:21:31;17.10;99.90
43858;DHT22;29507;51.284;5.758;2023-06-05T06:23:57;17.40;99.90
43858;DHT22;29507;51.284;5.758;2023-06-05T06:26:23;17.80;99.90
43858;DHT22;29507;51.284;5.758;2023-06-05T06:28:48;18.10;99.90
43858;DHT22;29507;51.284;5.758;2023-06-05T06:31:14;18.10;99.90
43858;DHT22;29507;51.284;5.758;2023-06-05T06:33:40;18.10;99.90
43858;DHT22;29507;51.284;5.758;2023-06-05T06:36:06;17.90;99.90
43858;DHT22;29507;51.284;5.758;2023-06-05T06:38:31;17.80;99.90
43858;DHT22;29507;51.284;5.758;2023-06-05T06:40:58;17.80;99.90
43858;DHT22;29507;51.284;5.758;2023-06-05T06:43:24;18.00;99.90
43858;DHT22;29507;51.284;5.758;2023-06-05T06:48:16;18.10;99.90
43858;DHT22;29507;51.284;5.758;2023-06-05T06:50:42;18.30;99.90
43858;DHT22;29507;51.284;5.758;2023-06-05T06:53:08;18.70;99.50
43858;DHT22;29507;51.284;5.758;2023-06-05T06:55:34;18.70;99.10
43858;DHT22;29507;51.284;5.758;2023-06-05T06:58:00;18.70;98.90
43858;DHT22;29507;51.284;5.758;2023-06-05T07:00:25;18.80;99.10
43858;DHT22;29507;51.284;5.758;2023-06-05T07:02:51;19.00;98.30
43858;DHT22;29507;51.284;5.758;2023-06-05T07:05:17;19.00;98.20
43858;DHT22;29507;51.284;5.758;2023-06-05T07:07:45;19.00;97.90
43858;DHT22;29507;51.284;5.758;2023-06-05T07:10:11;19.20;98.30
43858;DHT22;29507;51.284;5.758;2023-06-05T07:12:37;19.60;97.30
43858;DHT22;29507;51.284;5.758;2023-06-05T07:15:02;19.80;96.40
43858;DHT22;29507;51.284;5.758;2023-06-05T07:17:28;20.10;95.70
43858;DHT22;29507;51.284;5.758;2023-06-05T07:19:56;20.20;95.20
43858;DHT22;29507;51.284;5.758;2023-06-05T07:22:22;20.20;94.80
43858;DHT22;29507;51.284;5.758;2023-06-05T07:24:50;20.10;95.20
43858;DHT22;29507;51.284;5.758;2023-06-05T07:27:16;19.90;95.00
43858;DHT22;29507;51.284;5.758;2023-06-05T07:29:42;19.80;95.10
43858;DHT22;29507;51.284;5.758;2023-06-05T07:32:07;19.80;95.00
43858;DHT22;29507;51.284;5.758;2023-06-05T07:34:34;19.70;95.00
43858;DHT22;29507;51.284;5.758;2023-06-05T07:37:03;19.70;95.40
43858;DHT22;29507;51.284;5.758;2023-06-05T07:39:28;19.60;95.80
43858;DHT22;29507;51.284;5.758;2023-06-05T07:41:54;19.90;95.20
43858;DHT22;29507;51.284;5.758;2023-06-05T07:44:21;20.70;94.00
43858;DHT22;29507;51.284;5.758;2023-06-05T07:46:48;21.00;93.40
43858;DHT22;29507;51.284;5.758;2023-06-05T07:49:14;20.90;92.80
43858;DHT22;29507;51.284;5.758;2023-06-05T07:51:41;20.80;92.70
43858;DHT22;29507;51.284;5.758;2023-06-05T07:54:12;20.70;93.20
43858;DHT22;29507;51.284;5.758;2023-06-05T07:56:38;21.00;92.20
43858;DHT22;29507;51.284;5.758;2023-06-05T07:59:05;21.30;92.50
43858;DHT22;29507;51.284;5.758;2023-06-05T08:01:32;21.60;91.50
43858;DHT22;29507;51.284;5.758;2023-06-05T08:04:05;21.60;90.70
43858;DHT22;29507;51.284;5.758;2023-06-05T08:06:31;21.40;91.20
43858;DHT22;29507;51.284;5.758;2023-06-05T08:08:58;21.40;90.40
43858;DHT22;29507;51.284;5.758;2023-06-05T08:11:24;21.60;91.00
43858;DHT22;29507;51.284;5.758;2023-06-05T08:13:50;22.00;90.80
43858;DHT22;29507;51.284;5.758;2023-06-05T08:16:16;22.00;90.30
43858;DHT22;29507;51.284;5.758;2023-06-05T08:18:42;22.00;90.50
43858;DHT22;29507;51.284;5.758;2023-06-05T08:21:08;22.20;89.90
43858;DHT22;29507;51.284;5.758;2023-06-05T08:23:33;22.00;89.40
43858;DHT22;29507;51.284;5.758;2023-06-05T08:25:59;21.90;90.00
43858;DHT22;29507;51.284;5.758;2023-06-05T08:28:25;21.70;89.90
43858;DHT22;29507;51.284;5.758;2023-06-05T08:30:51;21.60;90.50
43858;DHT22;29507;51.284;5.758;2023-06-05T08:33:18;21.60;90.00
43858;DHT22;29507;51.284;5.758;2023-06-05T08:35:45;21.80;90.50
43858;DHT22;29507;51.284;5.758;2023-06-05T08:38:10;22.00;89.50
43858;DHT22;29507;51.284;5.758;2023-06-05T08:40:37;21.90;88.80
43858;DHT22;29507;51.284;5.758;2023-06-05T08:43:04;21.70;89.50
43858;DHT22;29507;51.284;5.758;2023-06-05T08:45:31;21.80;89.50
43858;DHT22;29507;51.284;5.758;2023-06-05T08:48:00;21.90;89.50
43858;DHT22;29507;51.284;5.758;2023-06-05T08:50:29;22.10;88.60
43858;DHT22;29507;51.284;5.758;2023-06-05T08:52:59;22.20;87.20
43858;DHT22;29507;51.284;5.758;2023-06-05T08:55:26;22.30;87.60
43858;DHT22;29507;51.284;5.758;2023-06-05T08:57:52;22.30;86.00
43858;DHT22;29507;51.284;5.758;2023-06-05T09:00:18;22.20;85.60
43858;DHT22;29507;51.284;5.758;2023-06-05T09:02:44;22.20;86.20
43858;DHT22;29507;51.284;5.758;2023-06-05T09:05:12;22.20;86.00
43858;DHT22;29507;51.284;5.758;2023-06-05T09:07:38;22.40;85.80
43858;DHT22;29507;51.284;5.758;2023-06-05T09:10:05;22.50;84.50
43858;DHT22;29507;51.284;5.758;2023-06-05T09:12:30;22.50;85.60
43858;DHT22;29507;51.284;5.758;2023-06-05T09:14:56;22.80;84.50
43858;DHT22;29507;51.284;5.758;2023-06-05T09:17:22;22.80;83.80
43858;DHT22;29507;51.284;5.758;2023-06-05T09:19:48;22.90;83.00
43858;DHT22;29507;51.284;5.758;2023-06-05T09:22:16;23.00;81.30
43858;DHT22;29507;51.284;5.758;2023-06-05T09:24:56;23.00;82.50
43858;DHT22;29507;51.284;5.758;2023-06-05T09:27:22;23.00;82.90
43858;DHT22;29507;51.284;5.758;2023-06-05T09:29:47;23.20;81.70
43858;DHT22;29507;51.284;5.758;2023-06-05T09:32:17;23.30;81.30
43858;DHT22;29507;51.284;5.758;2023-06-05T09:34:44;23.50;83.40
43858;DHT22;29507;51.284;5.758;2023-06-05T09:37:12;23.80;81.70
43858;DHT22;29507;51.284;5.758;2023-06-05T09:39:41;24.30;81.10
43858;DHT22;29507;51.284;5.758;2023-06-05T09:42:11;24.40;77.40
43858;DHT22;29507;51.284;5.758;2023-06-05T09:44:37;24.20;77.50
43858;DHT22;29507;51.284;5.758;2023-06-05T09:47:07;24.40;78.40
43858;DHT22;29507;51.284;5.758;2023-06-05T09:52:07;24.50;77.60
43858;DHT22;29507;51.284;5.758;2023-06-05T09:54:33;24.50;76.00
43858;DHT22;29507;51.284;5.758;2023-06-05T09:57:04;24.40;75.70
43858;DHT22;29507;51.284;5.758;2023-06-05T09:59:34;24.40;75.40
43858;DHT22;29507;51.284;5.758;2023-06-05T10:02:05;24.50;75.80
43858;DHT22;29507;51.284;5.758;2023-06-05T10:04:57;24.50;75.60
43858;DHT22;29507;51.284;5.758;2023-06-05T10:07:24;25.00;73.20
43858;DHT22;29507;51.284;5.758;2023-06-05T10:09:50;24.90;73.30
43858;DHT22;29507;51.284;5.758;2023-06-05T10:12:17;25.00;73.90
43858;DHT22;29507;51.284;5.758;2023-06-05T10:14:43;25.00;74.00
43858;DHT22;29507;51.284;5.758;2023-06-05T10:17:13;25.10;73.30
43858;DHT22;29507;51.284;5.758;2023-06-05T10:19:45;25.20;72.00
43858;DHT22;29507;51.284;5.758;2023-06-05T10:22:11;25.80;72.00
43858;DHT22;29507;51.284;5.758;2023-06-05T10:25:00;26.20;70.70
43858;DHT22;29507;51.284;5.758;2023-06-05T10:40:34;25.70;70.80
43858;DHT22;29507;51.284;5.758;2023-06-05T10:44:01;26.00;69.20
43858;DHT22;29507;51.284;5.758;2023-06-05T10:54:06;26.40;66.80
43858;DHT22;29507;51.284;5.758;2023-06-05T10:59:23;26.50;66.40
43858;DHT22;29507;51.284;5.758;2023-06-05T11:07:20;26.70;68.00
43858;DHT22;29507;51.284;5.758;2023-06-05T11:17:48;26.90;64.10
43858;DHT22;29507;51.284;5.758;2023-06-05T11:30:28;27.90;63.50
43858;DHT22;29507;51.284;5.758;2023-06-05T11:33:05;28.10;62.80
43858;DHT22;29507;51.284;5.758;2023-06-05T11:35:31;27.90;60.20
43858;DHT22;29507;51.284;5.758;2023-06-05T11:40:35;29.00;59.70
43858;DHT22;29507;51.284;5.758;2023-06-05T11:43:06;29.30;59.30
43858;DHT22;29507;51.284;5.758;2023-06-05T11:45:36;29.20;60.40
43858;DHT22;29507;51.284;5.758;2023-06-05T11:48:13;29.00;60.20
43858;DHT22;29507;51.284;5.758;2023-06-05T11:50:50;29.20;58.20
43858;DHT22;29507;51.284;5.758;2023-06-05T11:53:17;29.50;59.00
43858;DHT22;29507;51.284;5.758;2023-06-05T11:55:43;29.60;57.70
43858;DHT22;29507;51.284;5.758;2023-06-05T11:58:25;29.60;59.10
43858;DHT22;29507;51.284;5.758;2023-06-05T12:00:52;29.90;54.40
43858;DHT22;29507;51.284;5.758;2023-06-05T12:03:28;29.90;56.30
43858;DHT22;29507;51.284;5.758;2023-06-05T12:05:54;30.00;54.90
43858;DHT22;29507;51.284;5.758;2023-06-05T12:08:24;30.10;54.60
43858;DHT22;29507;51.284;5.758;2023-06-05T12:10:54;30.40;54.20
43858;DHT22;29507;51.284;5.758;2023-06-05T12:13:22;30.50;54.40
43858;DHT22;29507;51.284;5.758;2023-06-05T12:16:00;30.50;54.80
43858;DHT22;29507;51.284;5.758;2023-06-05T12:18:32;30.60;53.40
43858;DHT22;29507;51.284;5.758;2023-06-05T12:20:59;30.70;52.90
43858;DHT22;29507;51.284;5.758;2023-06-05T12:23:25;30.90;52.50
43858;DHT22;29507;51.284;5.758;2023-06-05T12:26:04;30.60;52.40
43858;DHT22;29507;51.284;5.758;2023-06-05T12:28:30;30.40;50.60
43858;DHT22;29507;51.284;5.758;2023-06-05T12:30:57;30.30;50.70
43858;DHT22;29507;51.284;5.758;2023-06-05T12:33:24;30.60;50.80
43858;DHT22;29507;51.284;5.758;2023-06-05T12:36:10;30.50;52.00
43858;DHT22;29507;51.284;5.758;2023-06-05T12:38:42;30.10;52.10
43858;DHT22;29507;51.284;5.758;2023-06-05T12:41:08;30.20;50.60
43858;DHT22;29507;51.284;5.758;2023-06-05T12:43:34;30.40;52.00
43858;DHT22;29507;51.284;5.758;2023-06-05T12:46:00;30.30;50.80
43858;DHT22;29507;51.284;5.758;2023-06-05T12:48:26;30.00;50.70
43858;DHT22;29507;51.284;5.758;2023-06-05T12:50:52;29.70;50.80
43858;DHT22;29507;51.284;5.758;2023-06-05T12:53:19;29.60;52.60
43858;DHT22;29507;51.284;5.758;2023-06-05T12:55:45;29.70;51.80
43858;DHT22;29507;51.284;5.758;2023-06-05T12:58:11;29.90;52.40
43858;DHT22;29507;51.284;5.758;2023-06-05T13:00:36;29.70;50.80
43858;DHT22;29507;51.284;5.758;2023-06-05T13:03:03;29.60;50.40
43858;DHT22;29507;51.284;5.758;2023-06-05T13:05:30;29.90;51.10
43858;DHT22;29507;51.284;5.758;2023-06-05T13:07:57;30.20;50.90
43858;DHT22;29507;51.284;5.758;2023-06-05T13:10:23;30.30;49.70
43858;DHT22;29507;51.284;5.758;2023-06-05T13:12:49;30.50;49.80
43858;DHT22;29507;51.284;5.758;2023-06-05T13:15:15;30.50;50.30
43858;DHT22;29507;51.284;5.758;2023-06-05T13:17:40;30.70;49.20
43858;DHT22;29507;51.284;5.758;2023-06-05T13:20:06;30.80;50.10
43858;DHT22;29507;51.284;5.758;2023-06-05T13:22:34;30.70;50.30
43858;DHT22;29507;51.284;5.758;2023-06-05T13:25:00;30.60;49.40
43858;DHT22;29507;51.284;5.758;2023-06-05T13:27:26;30.60;50.80
43858;DHT22;29507;51.284;5.758;2023-06-05T13:29:51;30.50;50.30
43858;DHT22;29507;51.284;5.758;2023-06-05T13:32:17;30.70;51.00
43858;DHT22;29507;51.284;5.758;2023-06-05T13:34:43;30.70;49.40
43858;DHT22;29507;51.284;5.758;2023-06-05T13:37:08;30.30;49.20
43858;DHT22;29507;51.284;5.758;2023-06-05T13:39:34;30.00;49.50
43858;DHT22;29507;51.284;5.758;2023-06-05T13:41:59;30.10;50.10
43858;DHT22;29507;51.284;5.758;2023-06-05T13:44:27;30.50;50.20
43858;DHT22;29507;51.284;5.758;2023-06-05T13:46:53;30.70;50.00
43858;DHT22;29507;51.284;5.758;2023-06-05T13:49:19;30.80;49.70
43858;DHT22;29507;51.284;5.758;2023-06-05T13:51:44;30.90;49.80
43858;DHT22;29507;51.284;5.758;2023-06-05T13:54:10;31.30;49.30
43858;DHT22;29507;51.284;5.758;2023-06-05T13:56:36;31.10;49.60
43858;DHT22;29507;51.284;5.758;2023-06-05T13:59:01;31.10;49.00
43858;DHT22;29507;51.284;5.758;2023-06-05T14:01:27;30.50;48.30
43858;DHT22;29507;51.284;5.758;2023-06-05T14:03:53;30.40;49.50
43858;DHT22;29507;51.284;5.758;2023-06-05T14:06:19;30.40;49.60
43858;DHT22;29507;51.284;5.758;2023-06-05T14:08:46;30.20;48.70
43858;DHT22;29507;51.284;5.758;2023-06-05T14:11:12;29.80;48.70
43858;DHT22;29507;51.284;5.758;2023-06-05T14:13:38;29.60;49.50
43858;DHT22;29507;51.284;5.758;2023-06-05T14:16:04;29.70;49.80
43858;DHT22;29507;51.284;5.758;2023-06-05T14:18:30;29.60;49.40
43858;DHT22;29507;51.284;5.758;2023-06-05T14:20:56;29.50;50.50
43858;DHT22;29507;51.284;5.758;2023-06-05T14:23:22;29.40;50.40
43858;DHT22;29507;51.284;5.758;2023-06-05T14:25:52;29.60;49.90
43858;DHT22;29507;51.284;5.758;2023-06-05T14:28:18;29.70;48.40
43858;DHT22;29507;51.284;5.758;2023-06-05T14:30:45;29.40;49.20
43858;DHT22;29507;51.284;5.758;2023-06-05T14:33:11;29.10;49.50
43858;DHT22;29507;51.284;5.758;2023-06-05T14:35:37;29.00;49.70
43858;DHT22;29507;51.284;5.758;2023-06-05T14:38:02;28.90;49.20
43858;DHT22;29507;51.284;5.758;2023-06-05T14:40:28;28.80;50.10
43858;DHT22;29507;51.284;5.758;2023-06-05T14:42:54;28.60;49.10
43858;DHT22;29507;51.284;5.758;2023-06-05T14:45:20;28.50;48.90
43858;DHT22;29507;51.284;5.758;2023-06-05T14:47:45;28.40;49.60
43858;DHT22;29507;51.284;5.758;2023-06-05T14:50:12;28.40;50.30
43858;DHT22;29507;51.284;5.758;2023-06-05T14:52:38;28.20;50.80
43858;DHT22;29507;51.284;5.758;2023-06-05T14:55:04;28.20;50.80
43858;DHT22;29507;51.284;5.758;2023-06-05T14:57:29;28.10;50.70
43858;DHT22;29507;51.284;5.758;2023-06-05T15:00:02;28.00;50.90
43858;DHT22;29507;51.284;5.758;2023-06-05T15:02:39;27.80;51.10
43858;DHT22;29507;51.284;5.758;2023-06-05T15:05:11;27.60;50.90
43858;DHT22;29507;51.284;5.758;2023-06-05T15:07:45;27.50;51.60
43858;DHT22;29507;51.284;5.758;2023-06-05T15:10:13;27.60;51.50
43858;DHT22;29507;51.284;5.758;2023-06-05T15:12:41;27.60;51.50
43858;DHT22;29507;51.284;5.758;2023-06-05T15:15:21;27.50;51.60
43858;DHT22;29507;51.284;5.758;2023-06-05T15:17:56;27.60;50.40
43858;DHT22;29507;51.284;5.758;2023-06-05T15:20:32;27.70;50.10
43858;DHT22;29507;51.284;5.758;2023-06-05T15:23:02;27.60;51.60
43858;DHT22;29507;51.284;5.758;2023-06-05T15:25:28;27.70;51.20
43858;DHT22;29507;51.284;5.758;2023-06-05T15:27:53;27.70;52.10
43858;DHT22;29507;51.284;5.758;2023-06-05T15:30:20;27.80;51.60
43858;DHT22;29507;51.284;5.758;2023-06-05T15:32:45;27.70;52.00
43858;DHT22;29507;51.284;5.758;2023-06-05T15:35:11;27.50;51.70
43858;DHT22;29507;51.284;5.758;2023-06-05T15:37:37;27.30;52.30
43858;DHT22;29507;51.284;5.758;2023-06-05T15:40:03;27.30;51.90
43858;DHT22;29507;51.284;5.758;2023-06-05T15:42:34;27.30;51.50
43858;DHT22;29507;51.284;5.758;2023-06-05T15:45:10;27.20;51.90
43858;DHT22;29507;51.284;5.758;2023-06-05T15:47:36;27.10;52.10
43858;DHT22;29507;51.284;5.758;2023-06-05T15:50:03;27.10;52.40
43858;DHT22;29507;51.284;5.758;2023-06-05T15:52:36;27.10;52.50
43858;DHT22;29507;51.284;5.758;2023-06-05T15:55:03;27.20;51.70
43858;DHT22;29507;51.284;5.758;2023-06-05T15:57:29;27.40;51.80
43858;DHT22;29507;51.284;5.758;2023-06-05T15:59:54;27.60;51.60
43858;DHT22;29507;51.284;5.758;2023-06-05T16:02:20;27.70;51.90
43858;DHT22;29507;51.284;5.758;2023-06-05T16:04:47;28.00;51.10
43858;DHT22;29507;51.284;5.758;2023-06-05T16:07:13;28.00;51.70
43858;DHT22;29507;51.284;5.758;2023-06-05T16:09:39;28.10;51.00
43858;DHT22;29507;51.284;5.758;2023-06-05T16:12:05;28.20;51.30
43858;DHT22;29507;51.284;5.758;2023-06-05T16:14:31;28.00;51.70
43858;DHT22;29507;51.284;5.758;2023-06-05T16:16:56;27.80;51.80
43858;DHT22;29507;51.284;5.758;2023-06-05T16:19:22;27.70;52.20
43858;DHT22;29507;51.284;5.758;2023-06-05T16:21:48;27.70;51.90
43858;DHT22;29507;51.284;5.758;2023-06-05T16:24:14;27.80;52.70
43858;DHT22;29507;51.284;5.758;2023-06-05T16:26:40;27.80;52.50